sensor_id;sensor_type;location;lat;lon;timestamp;temperature;humidity
38239;DHT22;24035;48.900;9.188;2023-06-26T00:02:04;19.20;99.90
38239;DHT22;24035;48.900;9.188;2023-06-26T00:04:30;19.10;99.90
38239;DHT22;24035;48.900;9.188;2023-06-26T00:06:56;19.10;99.90
38239;DHT22;24035;48.900;9.188;2023-06-26T00:09:21;19.20;99.90
38239;DHT22;24035;48.900;9.188;2023-06-26T00:11:47;19.10;99.90
38239;DHT22;24035;48.900;9.188;2023-06-26T00:14:13;19.10;99.90
38239;DHT22;24035;48.900;9.188;2023-06-26T00:16:38;19.00;99.90
38239;DHT22;24035;48.900;9.188;2023-06-26T00:19:04;19.00;99.90
38239;DHT22;24035;48.900;9.188;2023-06-26T00:21:30;18.90;99.90
38239;DHT22;24035;48.900;9.188;2023-06-26T00:23:56;18.90;99.90
38239;DHT22;24035;48.900;9.188;2023-06-26T00:26:22;18.80;99.90
38239;DHT22;24035;48.900;9.188;2023-06-26T00:28:49;18.80;99.90
38239;DHT22;24035;48.900;9.188;2023-06-26T00:31:15;18.90;99.90
38239;DHT22;24035;48.900;9.188;2023-06-26T00:33:40;18.80;99.90
38239;DHT22;24035;48.900;9.188;2023-06-26T00:36:06;18.80;99.90
38239;DHT22;24035;48.900;9.188;2023-06-26T00:38:32;18.80;99.90
38239;DHT22;24035;48.900;9.188;2023-06-26T00:40:58;18.80;99.90
38239;DHT22;24035;48.900;9.188;2023-06-26T00:43:23;18.80;99.90
38239;DHT22;24035;48.900;9.188;2023-06-26T00:45:49;18.80;99.90
38239;DHT22;24035;48.900;9.188;2023-06-26T00:48:15;18.70;99.90
38239;DHT22;24035;48.900;9.188;2023-06-26T00:50:42;18.70;99.90
38239;DHT22;24035;48.900;9.188;2023-06-26T00:53:09;18.60;99.90
38239;DHT22;24035;48.900;9.188;2023-06-26T00:55:35;18.60;99.90
38239;DHT22;24035;48.900;9.188;2023-06-26T00:58:02;18.60;99.90
38239;DHT22;24035;48.900;9.188;2023-06-26T01:00:27;18.50;99.90
38239;DHT22;24035;48.900;9.188;2023-06-26T01:02:54;18.40;99.90
38239;DHT22;24035;48.900;9.188;2023-06-26T01:05:25;18.30;99.90
38239;DHT22;24035;48.900;9.188;2023-06-26T01:07:52;18.30;99.90
38239;DHT22;24035;48.900;9.188;2023-06-26T01:10:17;18.30;1.00
38239;DHT22;24035;48.900;9.188;2023-06-26T01:12:44;18.30;1.00
38239;DHT22;24035;48.900;9.188;2023-06-26T01:15:10;18.20;1.00
38239;DHT22;24035;48.900;9.188;2023-06-26T01:17:37;18.20;1.00
38239;DHT22;24035;48.900;9.188;2023-06-26T01:20:05;18.10;1.00
38239;DHT22;24035;48.900;9.188;2023-06-26T01:28:39;18.00;1.00
38239;DHT22;24035;48.900;9.188;2023-06-26T01:31:07;17.90;1.00
38239;DHT22;24035;48.900;9.188;2023-06-26T01:33:34;17.90;1.00
38239;DHT22;24035;48.900;9.188;2023-06-26T01:36:01;17.90;1.00
38239;DHT22;24035;48.900;9.188;2023-06-26T01:38:27;17.90;1.00
38239;DHT22;24035;48.900;9.188;2023-06-26T01:40:53;17.90;1.00
38239;DHT22;24035;48.900;9.188;2023-06-26T01:43:28;17.80;1.00
38239;DHT22;24035;48.900;9.188;2023-06-26T01:45:59;17.80;1.00
38239;DHT22;24035;48.900;9.188;2023-06-26T01:48:34;17.80;1.00
38239;DHT22;24035;48.900;9.188;2023-06-26T01:51:02;17.90;1.00
38239;DHT22;24035;48.900;9.188;2023-06-26T01:53:35;17.80;1.00
38239;DHT22;24035;48.900;9.188;2023-06-26T01:56:08;17.70;1.00
38239;DHT22;24035;48.900;9.188;2023-06-26T01:58:35;17.60;1.00
38239;DHT22;24035;48.900;9.188;2023-06-26T02:01:03;17.60;1.00
38239;DHT22;24035;48.900;9.188;2023-06-26T02:03:29;17.50;1.00
38239;DHT22;24035;48.900;9.188;2023-06-26T02:05:56;17.50;1.00
38239;DHT22;24035;48.900;9.188;2023-06-26T02:08:22;17.50;1.00
38239;DHT22;24035;48.900;9.188;2023-06-26T02:10:48;17.40;1.00
38239;DHT22;24035;48.900;9.188;2023-06-26T02:13:14;17.40;1.00
38239;DHT22;24035;48.900;9.188;2023-06-26T02:15:40;17.40;1.00
38239;DHT22;24035;48.900;9.188;2023-06-26T02:18:05;17.40;1.00
38239;DHT22;24035;48.900;9.188;2023-06-26T02:20:31;17.40;1.00
38239;DHT22;24035;48.900;9.188;2023-06-26T02:22:58;17.40;1.00
38239;DHT22;24035;48.900;9.188;2023-06-26T02:25:24;17.40;1.00
38239;DHT22;24035;48.900;9.188;2023-06-26T02:27:50;17.40;1.00
38239;DHT22;24035;48.900;9.188;2023-06-26T02:30:16;17.40;1.00
38239;DHT22;24035;48.900;9.188;2023-06-26T02:32:41;17.40;1.00
38239;DHT22;24035;48.900;9.188;2023-06-26T02:35:07;17.30;1.00
38239;DHT22;24035;48.900;9.188;2023-06-26T02:37:33;17.20;1.00
38239;DHT22;24035;48.900;9.188;2023-06-26T02:39:59;17.20;1.00
38239;DHT22;24035;48.900;9.188;2023-06-26T02:42:24;17.10;1.00
38239;DHT22;24035;48.900;9.188;2023-06-26T02:44:50;17.10;1.00
38239;DHT22;24035;48.900;9.188;2023-06-26T02:47:16;17.10;1.00
38239;DHT22;24035;48.900;9.188;2023-06-26T02:49:41;17.10;1.00
38239;DHT22;24035;48.900;9.188;2023-06-26T02:52:07;17.10;1.00
38239;DHT22;24035;48.900;9.188;2023-06-26T02:54:33;17.10;1.00
38239;DHT22;24035;48.900;9.188;2023-06-26T02:56:58;17.10;1.00
38239;DHT22;24035;48.900;9.188;2023-06-26T02:59:25;17.10;1.00
38239;DHT22;24035;48.900;9.188;2023-06-26T03:01:52;17.20;1.00
38239;DHT22;24035;48.900;9.188;2023-06-26T03:04:17;17.20;1.00
38239;DHT22;24035;48.900;9.188;2023-06-26T03:06:43;17.20;1.00
38239;DHT22;24035;48.900;9.188;2023-06-26T03:09:09;17.20;1.00
38239;DHT22;24035;48.900;9.188;2023-06-26T03:11:35;17.10;1.00
38239;DHT22;24035;48.900;9.188;2023-06-26T03:14:01;17.00;1.00
38239;DHT22;24035;48.900;9.188;2023-06-26T03:16:27;17.00;1.00
38239;DHT22;24035;48.900;9.188;2023-06-26T03:18:52;17.00;1.00
38239;DHT22;24035;48.900;9.188;2023-06-26T03:21:18;17.00;1.00
38239;DHT22;24035;48.900;9.188;2023-06-26T03:23:44;17.00;1.00
38239;DHT22;24035;48.900;9.188;2023-06-26T03:26:09;17.00;1.00
38239;DHT22;24035;48.900;9.188;2023-06-26T03:28:35;17.10;1.00
38239;DHT22;24035;48.900;9.188;2023-06-26T03:31:01;17.10;1.00
38239;DHT22;24035;48.900;9.188;2023-06-26T03:33:26;17.20;1.00
38239;DHT22;24035;48.900;9.188;2023-06-26T03:35:52;17.30;1.00
38239;DHT22;24035;48.900;9.188;2023-06-26T03:38:18;17.30;1.00
38239;DHT22;24035;48.900;9.188;2023-06-26T03:40:44;17.30;1.00
38239;DHT22;24035;48.900;9.188;2023-06-26T03:43:13;17.30;1.00
38239;DHT22;24035;48.900;9.188;2023-06-26T03:45:39;17.40;1.00
38239;DHT22;24035;48.900;9.188;2023-06-26T03:48:05;17.60;1.00
38239;DHT22;24035;48.900;9.188;2023-06-26T03:50:30;18.10;1.00
38239;DHT22;24035;48.900;9.188;2023-06-26T03:52:56;18.70;1.00
38239;DHT22;24035;48.900;9.188;2023-06-26T03:55:22;19.50;99.90
38239;DHT22;24035;48.900;9.188;2023-06-26T03:57:49;20.40;99.90
38239;DHT22;24035;48.900;9.188;2023-06-26T04:00:15;21.20;99.90
38239;DHT22;24035;48.900;9.188;2023-06-26T04:02:41;21.70;99.90
38239;DHT22;24035;48.900;9.188;2023-06-26T04:05:07;22.10;99.90
38239;DHT22;24035;48.900;9.188;2023-06-26T04:07:33;22.10;99.90
38239;DHT22;24035;48.900;9.188;2023-06-26T04:10:01;22.20;99.90
38239;DHT22;24035;48.900;9.188;2023-06-26T04:12:27;22.50;99.90
38239;DHT22;24035;48.900;9.188;2023-06-26T04:14:53;23.00;99.90
38239;DHT22;24035;48.900;9.188;2023-06-26T04:17:18;23.40;99.90
38239;DHT22;24035;48.900;9.188;2023-06-26T04:19:45;23.80;99.90
38239;DHT22;24035;48.900;9.188;2023-06-26T04:22:10;24.30;99.90
38239;DHT22;24035;48.900;9.188;2023-06-26T04:24:36;24.50;99.90
38239;DHT22;24035;48.900;9.188;2023-06-26T04:27:02;24.80;99.90
38239;DHT22;24035;48.900;9.188;2023-06-26T04:29:28;25.10;99.90
38239;DHT22;24035;48.900;9.188;2023-06-26T04:31:54;25.20;99.90
38239;DHT22;24035;48.900;9.188;2023-06-26T04:34:27;25.10;99.90
38239;DHT22;24035;48.900;9.188;2023-06-26T04:36:53;25.50;99.90
38239;DHT22;24035;48.900;9.188;2023-06-26T04:39:19;25.80;99.90
38239;DHT22;24035;48.900;9.188;2023-06-26T04:41:48;26.20;99.90
38239;DHT22;24035;48.900;9.188;2023-06-26T04:44:14;26.40;99.10
38239;DHT22;24035;48.900;9.188;2023-06-26T04:46:39;26.70;97.00
38239;DHT22;24035;48.900;9.188;2023-06-26T04:49:07;26.80;96.80
38239;DHT22;24035;48.900;9.188;2023-06-26T04:51:33;27.20;99.90
38239;DHT22;24035;48.900;9.188;2023-06-26T04:53:59;27.50;97.00
38239;DHT22;24035;48.900;9.188;2023-06-26T04:56:25;28.20;99.90
38239;DHT22;24035;48.900;9.188;2023-06-26T04:58:50;28.50;98.90
38239;DHT22;24035;48.900;9.188;2023-06-26T05:01:16;28.90;99.90
38239;DHT22;24035;48.900;9.188;2023-06-26T05:03:42;29.30;99.90
38239;DHT22;24035;48.900;9.188;2023-06-26T05:06:08;30.10;99.90
38239;DHT22;24035;48.900;9.188;2023-06-26T05:08:34;30.20;99.90
38239;DHT22;24035;48.900;9.188;2023-06-26T05:11:00;30.90;99.90
38239;DHT22;24035;48.900;9.188;2023-06-26T05:13:25;31.50;99.90
38239;DHT22;24035;48.900;9.188;2023-06-26T05:15:52;32.10;99.90
38239;DHT22;24035;48.900;9.188;2023-06-26T05:18:18;32.30;99.90
38239;DHT22;24035;48.900;9.188;2023-06-26T05:20:44;32.80;99.90
38239;DHT22;24035;48.900;9.188;2023-06-26T05:23:13;33.20;99.90
38239;DHT22;24035;48.900;9.188;2023-06-26T05:25:39;34.00;99.90
38239;DHT22;24035;48.900;9.188;2023-06-26T05:28:05;34.70;99.90
38239;DHT22;24035;48.900;9.188;2023-06-26T05:30:32;34.80;99.90
38239;DHT22;24035;48.900;9.188;2023-06-26T05:33:01;35.30;99.90
38239;DHT22;24035;48.900;9.188;2023-06-26T05:35:29;35.80;99.90
38239;DHT22;24035;48.900;9.188;2023-06-26T05:37:57;36.00;99.90
38239;DHT22;24035;48.900;9.188;2023-06-26T05:40:24;36.60;99.90
38239;DHT22;24035;48.900;9.188;2023-06-26T05:42:50;36.40;99.90
38239;DHT22;24035;48.900;9.188;2023-06-26T05:45:16;37.10;99.90
38239;DHT22;24035;48.900;9.188;2023-06-26T05:47:42;37.50;99.90
38239;DHT22;24035;48.900;9.188;2023-06-26T05:50:09;37.80;99.90
38239;DHT22;24035;48.900;9.188;2023-06-26T05:52:37;37.60;99.90
38239;DHT22;24035;48.900;9.188;2023-06-26T05:55:05;37.50;99.90
38239;DHT22;24035;48.900;9.188;2023-06-26T05:57:31;37.00;99.90
38239;DHT22;24035;48.900;9.188;2023-06-26T05:59:57;37.10;99.90
38239;DHT22;24035;48.900;9.188;2023-06-26T06:02:23;37.20;99.90
38239;DHT22;24035;48.900;9.188;2023-06-26T06:04:49;37.80;99.90
38239;DHT22;24035;48.900;9.188;2023-06-26T06:07:15;38.00;99.90
38239;DHT22;24035;48.900;9.188;2023-06-26T06:09:41;38.50;99.90
38239;DHT22;24035;48.900;9.188;2023-06-26T06:12:07;38.70;99.90
38239;DHT22;24035;48.900;9.188;2023-06-26T06:14:34;39.10;99.90
38239;DHT22;24035;48.900;9.188;2023-06-26T06:17:00;39.40;99.90
38239;DHT22;24035;48.900;9.188;2023-06-26T06:19:26;39.80;99.90
38239;DHT22;24035;48.900;9.188;2023-06-26T06:21:52;40.10;99.90
38239;DHT22;24035;48.900;9.188;2023-06-26T06:24:18;40.60;99.90
38239;DHT22;24035;48.900;9.188;2023-06-26T06:26:44;40.60;99.90
38239;DHT22;24035;48.900;9.188;2023-06-26T06:29:09;40.10;99.90
38239;DHT22;24035;48.900;9.188;2023-06-26T06:31:35;39.10;99.90
38239;DHT22;24035;48.900;9.188;2023-06-26T06:34:01;39.40;99.90
38239;DHT22;24035;48.900;9.188;2023-06-26T06:36:27;39.90;99.90
38239;DHT22;24035;48.900;9.188;2023-06-26T06:38:53;40.00;99.90
38239;DHT22;24035;48.900;9.188;2023-06-26T06:41:19;40.00;99.90
38239;DHT22;24035;48.900;9.188;2023-06-26T06:43:45;40.30;99.90
38239;DHT22;24035;48.900;9.188;2023-06-26T06:46:11;40.70;99.90
38239;DHT22;24035;48.900;9.188;2023-06-26T06:48:37;41.40;99.90
38239;DHT22;24035;48.900;9.188;2023-06-26T06:51:03;41.90;99.90
38239;DHT22;24035;48.900;9.188;2023-06-26T06:53:29;42.00;99.90
38239;DHT22;24035;48.900;9.188;2023-06-26T06:55:55;41.70;99.90
38239;DHT22;24035;48.900;9.188;2023-06-26T06:58:21;41.20;99.90
38239;DHT22;24035;48.900;9.188;2023-06-26T07:00:48;41.00;99.90
38239;DHT22;24035;48.900;9.188;2023-06-26T07:03:15;41.50;99.90
38239;DHT22;24035;48.900;9.188;2023-06-26T07:05:42;41.70;99.90
38239;DHT22;24035;48.900;9.188;2023-06-26T07:08:08;39.20;99.10
38239;DHT22;24035;48.900;9.188;2023-06-26T07:10:34;37.20;98.10
38239;DHT22;24035;48.900;9.188;2023-06-26T07:12:59;36.50;99.10
38239;DHT22;24035;48.900;9.188;2023-06-26T07:15:26;36.60;96.80
38239;DHT22;24035;48.900;9.188;2023-06-26T07:17:52;35.60;95.40
38239;DHT22;24035;48.900;9.188;2023-06-26T07:20:17;35.50;94.40
38239;DHT22;24035;48.900;9.188;2023-06-26T07:26:05;37.10;97.00
38239;DHT22;24035;48.900;9.188;2023-06-26T07:28:31;37.40;99.30
38239;DHT22;24035;48.900;9.188;2023-06-26T07:30:57;37.70;99.10
38239;DHT22;24035;48.900;9.188;2023-06-26T07:33:22;38.50;98.70
38239;DHT22;24035;48.900;9.188;2023-06-26T07:39:11;36.20;99.00
38239;DHT22;24035;48.900;9.188;2023-06-26T07:41:36;35.70;97.80
38239;DHT22;24035;48.900;9.188;2023-06-26T07:44:02;35.00;97.30
38239;DHT22;24035;48.900;9.188;2023-06-26T07:46:28;35.40;99.00
38239;DHT22;24035;48.900;9.188;2023-06-26T07:48:54;36.60;99.90
38239;DHT22;24035;48.900;9.188;2023-06-26T07:51:20;38.00;99.70
38239;DHT22;24035;48.900;9.188;2023-06-26T07:53:46;38.60;99.20
38239;DHT22;24035;48.900;9.188;2023-06-26T07:56:11;37.80;96.40
38239;DHT22;24035;48.900;9.188;2023-06-26T07:58:37;37.10;98.40
38239;DHT22;24035;48.900;9.188;2023-06-26T08:01:03;35.50;96.60
38239;DHT22;24035;48.900;9.188;2023-06-26T08:03:28;35.00;96.60
38239;DHT22;24035;48.900;9.188;2023-06-26T08:05:54;35.30;99.00
38239;DHT22;24035;48.900;9.188;2023-06-26T08:08:20;34.60;98.80
38239;DHT22;24035;48.900;9.188;2023-06-26T08:10:46;34.60;98.90
38239;DHT22;24035;48.900;9.188;2023-06-26T08:13:12;34.30;98.00
38239;DHT22;24035;48.900;9.188;2023-06-26T08:15:38;34.30;99.40
38239;DHT22;24035;48.900;9.188;2023-06-26T08:18:04;33.40;99.30
38239;DHT22;24035;48.900;9.188;2023-06-26T08:20:30;33.50;99.90
38239;DHT22;24035;48.900;9.188;2023-06-26T08:22:56;33.70;99.90
38239;DHT22;24035;48.900;9.188;2023-06-26T08:25:22;34.00;99.90
38239;DHT22;24035;48.900;9.188;2023-06-26T08:27:47;33.90;99.90
38239;DHT22;24035;48.900;9.188;2023-06-26T08:30:13;33.70;99.90
38239;DHT22;24035;48.900;9.188;2023-06-26T08:32:39;33.90;99.90
38239;DHT22;24035;48.900;9.188;2023-06-26T08:35:06;34.10;99.90
38239;DHT22;24035;48.900;9.188;2023-06-26T08:37:33;34.20;99.90
38239;DHT22;24035;48.900;9.188;2023-06-26T08:40:00;33.50;99.90
38239;DHT22;24035;48.900;9.188;2023-06-26T08:42:25;32.80;99.90
38239;DHT22;24035;48.900;9.188;2023-06-26T08:44:51;33.60;99.90
38239;DHT22;24035;48.900;9.188;2023-06-26T08:47:18;33.90;99.90
38239;DHT22;24035;48.900;9.188;2023-06-26T08:49:53;33.40;99.90
38239;DHT22;24035;48.900;9.188;2023-06-26T08:52:31;32.40;99.90
38239;DHT22;24035;48.900;9.188;2023-06-26T08:55:00;32.70;99.90
38239;DHT22;24035;48.900;9.188;2023-06-26T08:57:28;32.20;99.90
38239;DHT22;24035;48.900;9.188;2023-06-26T08:59:54;32.10;99.90
38239;DHT22;24035;48.900;9.188;2023-06-26T09:02:20;32.30;99.90
38239;DHT22;24035;48.900;9.188;2023-06-26T09:04:47;31.80;99.90
38239;DHT22;24035;48.900;9.188;2023-06-26T09:07:14;32.10;99.90
38239;DHT22;24035;48.900;9.188;2023-06-26T09:09:40;32.50;99.90
38239;DHT22;24035;48.900;9.188;2023-06-26T09:12:06;33.20;99.90
38239;DHT22;24035;48.900;9.188;2023-06-26T09:14:34;32.50;99.90
38239;DHT22;24035;48.900;9.188;2023-06-26T09:16:59;32.30;99.90
38239;DHT22;24035;48.900;9.188;2023-06-26T09:19:25;31.90;99.90
38239;DHT22;24035;48.900;9.188;2023-06-26T09:21:51;31.60;99.90
38239;DHT22;24035;48.900;9.188;2023-06-26T09:24:17;31.50;99.90
38239;DHT22;24035;48.900;9.188;2023-06-26T09:26:43;31.50;99.90
38239;DHT22;24035;48.900;9.188;2023-06-26T09:29:09;31.50;99.90
38239;DHT22;24035;48.900;9.188;2023-06-26T09:31:37;31.50;99.90
38239;DHT22;24035;48.900;9.188;2023-06-26T09:34:03;31.60;99.90
38239;DHT22;24035;48.900;9.188;2023-06-26T09:36:30;31.90;99.90
38239;DHT22;24035;48.900;9.188;2023-06-26T09:39:00;31.60;99.90
38239;DHT22;24035;48.900;9.188;2023-06-26T09:41:26;31.30;99.90
38239;DHT22;24035;48.900;9.188;2023-06-26T09:43:52;31.50;99.90
38239;DHT22;24035;48.900;9.188;2023-06-26T09:46:28;31.90;99.90
38239;DHT22;24035;48.900;9.188;2023-06-26T09:49:04;32.10;99.90
38239;DHT22;24035;48.900;9.188;2023-06-26T09:51:35;32.20;99.90
38239;DHT22;24035;48.900;9.188;2023-06-26T09:54:02;31.80;99.90
38239;DHT22;24035;48.900;9.188;2023-06-26T09:56:29;31.60;99.90
38239;DHT22;24035;48.900;9.188;2023-06-26T09:58:56;31.50;99.90
38239;DHT22;24035;48.900;9.188;2023-06-26T10:01:26;31.40;99.90
38239;DHT22;24035;48.900;9.188;2023-06-26T10:03:54;31.40;99.90
38239;DHT22;24035;48.900;9.188;2023-06-26T10:06:31;31.50;99.90
38239;DHT22;24035;48.900;9.188;2023-06-26T10:09:00;31.60;99.90
38239;DHT22;24035;48.900;9.188;2023-06-26T10:11:32;32.00;99.90
38239;DHT22;24035;48.900;9.188;2023-06-26T10:14:03;32.00;99.90
38239;DHT22;24035;48.900;9.188;2023-06-26T10:16:31;31.30;99.90
38239;DHT22;24035;48.900;9.188;2023-06-26T10:19:05;31.30;99.90
38239;DHT22;24035;48.900;9.188;2023-06-26T10:21:34;31.30;99.90
38239;DHT22;24035;48.900;9.188;2023-06-26T10:24:00;31.00;99.90
38239;DHT22;24035;48.900;9.188;2023-06-26T10:26:28;31.00;99.90
38239;DHT22;24035;48.900;9.188;2023-06-26T10:28:56;31.10;99.90
38239;DHT22;24035;48.900;9.188;2023-06-26T10:31:26;30.90;99.90
38239;DHT22;24035;48.900;9.188;2023-06-26T10:33:54;31.00;99.90
38239;DHT22;24035;48.900;9.188;2023-06-26T10:36:27;30.60;99.90
38239;DHT22;24035;48.900;9.188;2023-06-26T10:38:59;30.50;99.90
38239;DHT22;24035;48.900;9.188;2023-06-26T10:41:39;30.40;99.90
38239;DHT22;24035;48.900;9.188;2023-06-26T10:44:08;30.40;99.90
38239;DHT22;24035;48.900;9.188;2023-06-26T10:46:51;30.30;99.90
38239;DHT22;24035;48.900;9.188;2023-06-26T10:49:19;29.90;99.90
38239;DHT22;24035;48.900;9.188;2023-06-26T10:51:49;29.90;99.90
38239;DHT22;24035;48.900;9.188;2023-06-26T10:54:19;30.10;99.90
38239;DHT22;24035;48.900;9.188;2023-06-26T10:56:47;30.00;99.90
38239;DHT22;24035;48.900;9.188;2023-06-26T10:59:20;30.00;99.90
38239;DHT22;24035;48.900;9.188;2023-06-26T11:01:53;29.70;99.90
38239;DHT22;24035;48.900;9.188;2023-06-26T11:04:53;29.60;99.90
38239;DHT22;24035;48.900;9.188;2023-06-26T11:07:25;29.70;99.90
38239;DHT22;24035;48.900;9.188;2023-06-26T11:12:40;30.20;99.90
38239;DHT22;24035;48.900;9.188;2023-06-26T11:15:14;30.30;99.90
38239;DHT22;24035;48.900;9.188;2023-06-26T11:17:42;30.50;99.90
38239;DHT22;24035;48.900;9.188;2023-06-26T11:20:13;30.50;99.90
38239;DHT22;24035;48.900;9.188;2023-06-26T11:22:41;30.80;99.90
38239;DHT22;24035;48.900;9.188;2023-06-26T11:25:08;30.90;99.90
38239;DHT22;24035;48.900;9.188;2023-06-26T11:27:41;30.90;99.90
38239;DHT22;24035;48.900;9.188;2023-06-26T11:30:09;31.00;99.90
38239;DHT22;24035;48.900;9.188;2023-06-26T11:32:39;31.10;99.90
38239;DHT22;24035;48.900;9.188;2023-06-26T11:35:05;31.30;99.90
38239;DHT22;24035;48.900;9.188;2023-06-26T11:37:32;31.00;99.90
38239;DHT22;24035;48.900;9.188;2023-06-26T11:39:58;30.80;99.90
38239;DHT22;24035;48.900;9.188;2023-06-26T11:42:24;31.10;99.90
38239;DHT22;24035;48.900;9.188;2023-06-26T11:44:51;32.00;99.90
38239;DHT22;24035;48.900;9.188;2023-06-26T11:47:18;32.00;99.90
38239;DHT22;24035;48.900;9.188;2023-06-26T11:49:47;31.80;99.90
38239;DHT22;24035;48.900;9.188;2023-06-26T11:52:13;31.40;99.90
38239;DHT22;24035;48.900;9.188;2023-06-26T11:54:40;31.20;99.90
38239;DHT22;24035;48.900;9.188;2023-06-26T11:57:05;30.50;99.90
38239;DHT22;24035;48.900;9.188;2023-06-26T11:59:39;30.10;99.90
38239;DHT22;24035;48.900;9.188;2023-06-26T12:02:09;29.80;99.90
38239;DHT22;24035;48.900;9.188;2023-06-26T12:04:41;29.60;99.90
38239;DHT22;24035;48.900;9.188;2023-06-26T12:07:09;29.40;99.90
38239;DHT22;24035;48.900;9.188;2023-06-26T12:09:39;29.80;99.90
38239;DHT22;24035;48.900;9.188;2023-06-26T12:12:06;30.20;99.90
38239;DHT22;24035;48.900;9.188;2023-06-26T12:14:33;30.10;99.90
38239;DHT22;24035;48.900;9.188;2023-06-26T12:17:09;29.90;99.90
38239;DHT22;24035;48.900;9.188;2023-06-26T12:19:42;30.60;99.90
38239;DHT22;24035;48.900;9.188;2023-06-26T12:22:09;31.20;99.90
38239;DHT22;24035;48.900;9.188;2023-06-26T12:24:37;31.60;99.90
38239;DHT22;24035;48.900;9.188;2023-06-26T12:27:14;31.80;99.90
38239;DHT22;24035;48.900;9.188;2023-06-26T12:30:02;32.00;99.90
38239;DHT22;24035;48.900;9.188;2023-06-26T12:32:28;31.40;99.90
38239;DHT22;24035;48.900;9.188;2023-06-26T12:34:56;31.00;99.90
38239;DHT22;24035;48.900;9.188;2023-06-26T12:37:22;30.80;99.90
38239;DHT22;24035;48.900;9.188;2023-06-26T12:39:57;31.20;99.90
38239;DHT22;24035;48.900;9.188;2023-06-26T12:42:25;31.80;99.90
38239;DHT22;24035;48.900;9.188;2023-06-26T12:44:52;32.10;99.90
38239;DHT22;24035;48.900;9.188;2023-06-26T12:47:22;32.20;99.90
38239;DHT22;24035;48.900;9.188;2023-06-26T12:49:52;32.10;99.90
38239;DHT22;24035;48.900;9.188;2023-06-26T12:52:18;32.30;99.90
38239;DHT22;24035;48.900;9.188;2023-06-26T12:54:45;32.60;99.90
38239;DHT22;24035;48.900;9.188;2023-06-26T12:57:13;32.30;99.90
38239;DHT22;24035;48.900;9.188;2023-06-26T12:59:42;31.90;99.90
38239;DHT22;24035;48.900;9.188;2023-06-26T13:02:09;31.60;99.90
38239;DHT22;24035;48.900;9.188;2023-06-26T13:04:36;31.40;99.90
38239;DHT22;24035;48.900;9.188;2023-06-26T13:07:08;31.20;99.90
38239;DHT22;24035;48.900;9.188;2023-06-26T13:09:34;31.30;99.90
38239;DHT22;24035;48.900;9.188;2023-06-26T13:12:01;31.40;99.90
38239;DHT22;24035;48.900;9.188;2023-06-26T13:14:30;31.50;99.90
38239;DHT22;24035;48.900;9.188;2023-06-26T13:16:55;31.80;99.90
38239;DHT22;24035;48.900;9.188;2023-06-26T13:19:21;31.50;99.90
38239;DHT22;24035;48.900;9.188;2023-06-26T13:21:47;31.80;99.90
38239;DHT22;24035;48.900;9.188;2023-06-26T13:24:13;32.40;99.90
38239;DHT22;24035;48.900;9.188;2023-06-26T13:26:39;32.40;99.90
38239;DHT22;24035;48.900;9.188;2023-06-26T13:29:05;32.00;99.90
38239;DHT22;24035;48.900;9.188;2023-06-26T13:31:31;31.90;99.90
38239;DHT22;24035;48.900;9.188;2023-06-26T13:33:58;32.10;99.90
38239;DHT22;24035;48.900;9.188;2023-06-26T13:36:24;32.40;99.90
38239;DHT22;24035;48.900;9.188;2023-06-26T13:38:50;32.70;99.90
38239;DHT22;24035;48.900;9.188;2023-06-26T13:41:22;32.20;99.90
38239;DHT22;24035;48.900;9.188;2023-06-26T13:43:48;32.20;99.90
38239;DHT22;24035;48.900;9.188;2023-06-26T13:46:15;32.00;99.90
38239;DHT22;24035;48.900;9.188;2023-06-26T13:48:41;32.10;99.90
38239;DHT22;24035;48.900;9.188;2023-06-26T13:51:07;32.20;99.90
38239;DHT22;24035;48.900;9.188;2023-06-26T13:53:33;32.80;99.90
38239;DHT22;24035;48.900;9.188;2023-06-26T13:55:58;32.60;99.90
38239;DHT22;24035;48.900;9.188;2023-06-26T13:58:24;32.40;99.90
38239;DHT22;24035;48.900;9.188;2023-06-26T14:00:52;32.10;99.90
38239;DHT22;24035;48.900;9.188;2023-06-26T14:03:19;32.40;99.90
38239;DHT22;24035;48.900;9.188;2023-06-26T14:05:45;32.00;99.90
38239;DHT22;24035;48.900;9.188;2023-06-26T14:08:11;31.30;99.90
38239;DHT22;24035;48.900;9.188;2023-06-26T14:10:37;31.10;99.90
38239;DHT22;24035;48.900;9.188;2023-06-26T14:13:03;31.50;99.90
38239;DHT22;24035;48.900;9.188;2023-06-26T14:15:29;32.10;99.90
38239;DHT22;24035;48.900;9.188;2023-06-26T14:17:55;32.20;99.90
38239;DHT22;24035;48.900;9.188;2023-06-26T14:20:22;32.10;99.90
38239;DHT22;24035;48.900;9.188;2023-06-26T14:22:48;32.40;99.90
38239;DHT22;24035;48.900;9.188;2023-06-26T14:25:14;32.50;99.90
38239;DHT22;24035;48.900;9.188;2023-06-26T14:27:40;32.30;99.90
38239;DHT22;24035;48.900;9.188;2023-06-26T14:30:07;31.30;99.90
38239;DHT22;24035;48.900;9.188;2023-06-26T14:32:34;31.40;99.90
38239;DHT22;24035;48.900;9.188;2023-06-26T14:35:01;31.20;99.90
38239;DHT22;24035;48.900;9.188;2023-06-26T14:37:28;30.80;99.90
38239;DHT22;24035;48.900;9.188;2023-06-26T14:39:55;31.10;99.90
38239;DHT22;24035;48.900;9.188;2023-06-26T14:42:21;31.90;99.90
38239;DHT22;24035;48.900;9.188;2023-06-26T14:44:47;31.70;99.90
38239;DHT22;24035;48.900;9.188;2023-06-26T14:47:17;31.70;99.90
38239;DHT22;24035;48.900;9.188;2023-06-26T14:49:43;31.30;99.90
38239;DHT22;24035;48.900;9.188;2023-06-26T14:52:09;31.60;99.90
38239;DHT22;24035;48.900;9.188;2023-06-26T14:54:35;32.10;99.90
38239;DHT22;24035;48.900;9.188;2023-06-26T14:57:06;32.00;99.90
38239;DHT22;24035;48.900;9.188;2023-06-26T14:59:32;32.10;99.90
38239;DHT22;24035;48.900;9.188;2023-06-26T15:01:57;31.80;99.90
38239;DHT22;24035;48.900;9.188;2023-06-26T15:04:23;31.90;99.90
38239;DHT22;24035;48.900;9.188;2023-06-26T15:06:49;32.20;99.90
38239;DHT22;24035;48.900;9.188;2023-06-26T15:09:15;32.50;99.90
38239;DHT22;24035;48.900;9.188;2023-06-26T15:11:41;32.60;99.90
38239;DHT22;24035;48.900;9.188;2023-06-26T15:14:06;32.70;99.90
38239;DHT22;24035;48.900;9.188;2023-06-26T15:16:32;33.10;99.90
38239;DHT22;24035;48.900;9.188;2023-06-26T15:18:58;32.70;99.90
38239;DHT22;24035;48.900;9.188;2023-06-26T15:21:24;32.20;99.90
38239;DHT22;24035;48.900;9.188;2023-06-26T15:23:50;31.90;99.90
38239;DHT22;24035;48.900;9.188;2023-06-26T15:26:16;31.70;99.90
38239;DHT22;24035;48.900;9.188;2023-06-26T15:28:42;31.40;99.90
38239;DHT22;24035;48.900;9.188;2023-06-26T15:31:09;31.00;99.90
38239;DHT22;24035;48.900;9.188;2023-06-26T15:33:35;31.50;99.90
38239;DHT22;24035;48.900;9.188;2023-06-26T15:36:00;31.30;99.90
38239;DHT22;24035;48.900;9.188;2023-06-26T15:38:29;30.80;99.90
38239;DHT22;24035;48.900;9.188;2023-06-26T15:40:55;29.80;99.90
38239;DHT22;24035;48.900;9.188;2023-06-26T15:43:20;29.40;99.90
38239;DHT22;24035;48.900;9.188;2023-06-26T15:45:46;29.40;99.90
38239;DHT22;24035;48.900;9.188;2023-06-26T15:48:11;29.00;99.90